Time;durP1;ratioP1;P1;durP2;ratioP2;P2;SDS_P1;SDS_P2;PMS_P1;PMS_P2;Temp;Humidity;BMP_temperature;BMP_pressure;BME280_temperature;BME280_humidity;BME280_pressure;Samples;Min_cycle;Max_cycle;Signal;HPM_P1;HPM_P2
2023/09/01 00:00:06;;;;;;;2.78;1.67;;;22.40;59.20;;;;;;4984810;28;88673;-86
2023/09/01 00:02:32;;;;;;;3.35;1.90;;;22.40;59.20;;;;;;4984974;28;87590;-86
2023/09/01 00:04:57;;;;;;;2.97;1.88;;;22.40;59.30;;;;;;4966445;28;90802;-85
2023/09/01 00:07:23;;;;;;;3.08;1.90;;;22.40;59.20;;;;;;4983650;28;87485;-86
2023/09/01 00:09:50;;;;;;;2.15;1.60;;;22.40;59.30;;;;;;4986603;28;87997;-85
2023/09/01 00:12:16;;;;;;;3.70;1.60;;;22.40;59.30;;;;;;4965752;28;89072;-86
2023/09/01 00:14:42;;;;;;;2.42;1.80;;;22.40;59.30;;;;;;4984617;28;87783;-85
2023/09/01 00:17:08;;;;;;;4.20;2.08;;;22.40;59.20;;;;;;4985300;28;87858;-86
2023/09/01 00:19:35;;;;;;;2.80;1.58;;;22.40;59.30;;;;;;4965709;28;87752;-86
2023/09/01 00:22:00;;;;;;;2.85;1.60;;;22.40;59.10;;;;;;4966707;28;88053;-85
2023/09/01 00:24:26;;;;;;;1.88;1.50;;;22.40;59.30;;;;;;4982244;28;89369;-87
2023/09/01 00:26:52;;;;;;;2.75;1.92;;;22.40;59.20;;;;;;4984208;28;88769;-86
2023/09/01 00:29:17;;;;;;;3.42;1.88;;;22.40;59.30;;;;;;4986284;28;88015;-85
2023/09/01 00:31:43;;;;;;;2.13;1.67;;;22.40;59.30;;;;;;4984174;28;87408;-85
2023/09/01 00:34:09;;;;;;;2.72;1.60;;;22.40;59.50;;;;;;4986627;28;88653;-86
2023/09/01 00:36:34;;;;;;;3.75;2.50;;;22.40;59.20;;;;;;4982619;28;88731;-85
2023/09/01 00:39:00;;;;;;;2.00;1.48;;;22.40;59.20;;;;;;4983983;28;87410;-85
2023/09/01 00:41:25;;;;;;;2.33;1.63;;;22.40;59.10;;;;;;4984994;28;87144;-86
2023/09/01 00:43:51;;;;;;;2.88;1.75;;;22.30;59.10;;;;;;4983692;28;88623;-86
2023/09/01 00:46:17;;;;;;;2.20;1.48;;;22.40;59.30;;;;;;4984870;28;88378;-85
2023/09/01 00:48:43;;;;;;;2.85;1.27;;;22.40;59.20;;;;;;4984245;28;88767;-85
2023/09/01 00:51:09;;;;;;;2.90;1.90;;;22.40;59.90;;;;;;4965945;28;89995;-86
2023/09/01 00:53:36;;;;;;;3.22;1.85;;;22.40;59.30;;;;;;4983216;28;89048;-85
2023/09/01 00:56:03;;;;;;;3.33;2.20;;;22.30;59.40;;;;;;4982885;28;88264;-86
2023/09/01 00:58:29;;;;;;;2.28;1.73;;;22.30;59.30;;;;;;4984302;28;88136;-85
2023/09/01 01:00:58;;;;;;;2.97;2.22;;;22.40;59.40;;;;;;4985311;28;87360;-85
2023/09/01 01:03:23;;;;;;;2.42;1.65;;;22.30;59.40;;;;;;4984090;28;87824;-85
2023/09/01 01:06:09;;;;;;;2.88;1.63;;;22.30;59.50;;;;;;4985509;28;87814;-86
2023/09/01 01:09:16;;;;;;;3.10;1.90;;;22.30;59.40;;;;;;4983695;28;88036;-85
2023/09/01 01:11:43;;;;;;;3.47;1.70;;;22.30;59.30;;;;;;4982542;28;88347;-86
2023/09/01 01:14:15;;;;;;;2.78;1.70;;;22.30;59.40;;;;;;4984398;28;89431;-85
2023/09/01 01:16:41;;;;;;;3.05;1.77;;;22.30;59.30;;;;;;4965184;28;88347;-85
2023/09/01 01:19:25;;;;;;;2.83;1.85;;;22.30;59.20;;;;;;4984075;28;87528;-86
2023/09/01 01:21:52;;;;;;;3.65;1.92;;;22.30;59.30;;;;;;4982247;28;93832;-86
2023/09/01 01:24:19;;;;;;;2.35;1.58;;;22.30;59.50;;;;;;4983575;28;88457;-85
2023/09/01 01:26:44;;;;;;;1.80;1.60;;;22.30;59.50;;;;;;4983784;28;87744;-85
2023/09/01 01:29:10;;;;;;;3.10;2.00;;;22.30;59.60;;;;;;4964640;28;87629;-86
2023/09/01 01:31:36;;;;;;;2.25;1.77;;;22.30;59.60;;;;;;4982663;28;86545;-86
2023/09/01 01:34:16;;;;;;;4.38;2.13;;;22.30;59.50;;;;;;4983576;28;89187;-85
2023/09/01 01:37:07;;;;;;;2.83;1.55;;;22.30;59.50;;;;;;4981721;28;91975;-86
2023/09/01 01:39:34;;;;;;;1.98;1.50;;;22.30;59.60;;;;;;4982085;28;88885;-86
2023/09/01 01:42:13;;;;;;;2.95;1.60;;;22.30;59.50;;;;;;4984448;28;87787;-86
2023/09/01 01:44:43;;;;;;;;;;;22.30;59.50;;;;;;4983258;28;88969;-86
2023/09/01 01:47:11;;;;;;;1.98;1.40;;;22.30;59.50;;;;;;4983455;28;88246;-86
2023/09/01 01:49:37;;;;;;;2.40;1.80;;;22.30;59.50;;;;;;4981715;28;88300;-86
2023/09/01 01:52:04;;;;;;;2.60;1.90;;;22.30;59.50;;;;;;4983962;28;87513;-86
2023/09/01 01:54:30;;;;;;;4.03;1.60;;;22.30;59.60;;;;;;4983206;28;89211;-86
2023/09/01 01:56:56;;;;;;;3.53;2.05;;;22.30;59.50;;;;;;4983784;28;87439;-86
2023/09/01 01:59:22;;;;;;;2.25;1.80;;;22.30;59.50;;;;;;4981597;28;87992;-86
2023/09/01 02:01:47;;;;;;;2.65;1.67;;;22.20;59.60;;;;;;4980601;28;88098;-86
2023/09/01 02:04:13;;;;;;;2.03;1.55;;;22.20;59.60;;;;;;4982626;28;88727;-86
2023/09/01 02:06:39;;;;;;;2.58;1.38;;;22.20;59.70;;;;;;4964807;28;93413;-86
2023/09/01 02:09:09;;;;;;;2.13;1.40;;;22.30;59.70;;;;;;4983804;28;87748;-85
2023/09/01 02:11:35;;;;;;;2.50;1.60;;;22.30;59.80;;;;;;4983303;28;87895;-86
2023/09/01 02:14:01;;;;;;;2.25;1.80;;;22.30;59.60;;;;;;4981848;28;88326;-86
2023/09/01 02:16:27;;;;;;;2.30;1.60;;;22.20;59.40;;;;;;4981920;28;88277;-86
2023/09/01 02:18:52;;;;;;;3.20;1.52;;;22.20;59.60;;;;;;4982578;28;87853;-86
2023/09/01 02:21:21;;;;;;;1.77;1.40;;;22.20;59.50;;;;;;4983074;28;87434;-87
2023/09/01 02:23:48;;;;;;;3.72;1.63;;;22.30;59.60;;;;;;4981624;28;87724;-86
2023/09/01 02:26:20;;;;;;;1.60;1.30;;;22.30;59.50;;;;;;4982014;28;87917;-85
2023/09/01 02:28:47;;;;;;;2.28;1.70;;;22.20;59.60;;;;;;4964367;28;88995;-87
2023/09/01 02:31:14;;;;;;;2.08;1.52;;;22.30;59.40;;;;;;4980623;28;88728;-86
2023/09/01 02:33:39;;;;;;;2.08;1.60;;;22.20;59.50;;;;;;4981897;28;92081;-85
2023/09/01 02:36:25;;;;;;;2.38;1.65;;;22.20;59.60;;;;;;4981502;28;88542;-86
2023/09/01 02:38:52;;;;;;;2.75;1.63;;;22.20;59.40;;;;;;4964760;28;87323;-87
2023/09/01 02:41:18;;;;;;;2.35;1.85;;;22.20;59.50;;;;;;4982563;28;88167;-87
2023/09/01 02:43:45;;;;;;;2.30;1.60;;;22.20;59.40;;;;;;4963650;28;90577;-86
2023/09/01 02:46:11;;;;;;;2.40;1.80;;;22.20;59.50;;;;;;4983498;28;87915;-85
2023/09/01 02:48:36;;;;;;;2.00;1.40;;;22.20;59.40;;;;;;4982175;28;87134;-85
2023/09/01 02:51:04;;;;;;;1.88;1.50;;;22.20;59.40;;;;;;4963821;28;88280;-85
2023/09/01 02:53:34;;;;;;;2.42;1.60;;;22.20;59.40;;;;;;4982084;28;89509;-86
2023/09/01 02:56:00;;;;;;;2.75;1.60;;;22.30;59.60;;;;;;4979973;28;88366;-85
2023/09/01 02:58:25;;;;;;;2.10;1.73;;;22.20;59.40;;;;;;4983014;28;88071;-86
2023/09/01 03:00:52;;;;;;;2.75;1.85;;;22.20;59.30;;;;;;4983260;28;87637;-86
2023/09/01 03:03:19;;;;;;;1.60;1.50;;;22.20;59.20;;;;;;4964015;28;90801;-85
2023/09/01 03:05:49;;;;;;;1.70;1.30;;;22.20;59.20;;;;;;4964312;28;90393;-86
2023/09/01 03:08:15;;;;;;;1.77;1.35;;;22.20;59.40;;;;;;4964505;28;88010;-86
2023/09/01 03:10:41;;;;;;;2.13;1.33;;;22.20;59.40;;;;;;4983369;28;87054;-85
2023/09/01 03:13:07;;;;;;;1.90;1.38;;;22.20;59.40;;;;;;4983412;28;88007;-86
2023/09/01 03:15:32;;;;;;;1.45;1.30;;;22.20;59.30;;;;;;4985524;28;88182;-86
2023/09/01 03:17:58;;;;;;;1.73;1.30;;;22.20;59.30;;;;;;4984786;28;89644;-86
2023/09/01 03:20:24;;;;;;;1.90;1.75;;;22.20;59.20;;;;;;4967153;28;87492;-85
2023/09/01 03:22:50;;;;;;;2.95;1.90;;;22.20;59.40;;;;;;4986049;28;87783;-86
2023/09/01 03:25:17;;;;;;;3.17;1.35;;;22.30;59.50;;;;;;4967715;28;90897;-86
2023/09/01 03:27:43;;;;;;;2.40;1.52;;;22.20;59.40;;;;;;4985527;28;87390;-86
2023/09/01 03:30:13;;;;;;;2.30;1.67;;;22.20;59.50;;;;;;4987473;28;87331;-86
2023/09/01 03:32:39;;;;;;;2.55;1.52;;;22.20;59.40;;;;;;4973157;28;90979;-86
2023/09/01 03:35:05;;;;;;;2.53;1.38;;;22.20;59.50;;;;;;4968100;28;88084;-87
2023/09/01 03:37:31;;;;;;;1.77;1.58;;;22.20;59.30;;;;;;4984191;28;87970;-86
2023/09/01 03:39:57;;;;;;;1.73;1.33;;;22.20;59.50;;;;;;4986916;28;87606;-86
2023/09/01 03:42:23;;;;;;;1.70;1.27;;;22.20;59.30;;;;;;4984221;28;89016;-86
2023/09/01 03:44:48;;;;;;;1.40;1.30;;;22.20;59.30;;;;;;4985638;28;89087;-86
2023/09/01 03:47:14;;;;;;;2.20;1.58;;;22.20;59.20;;;;;;4966989;28;87510;-85
2023/09/01 03:49:40;;;;;;;1.80;1.30;;;22.20;59.30;;;;;;4984641;28;87626;-87
2023/09/01 03:52:06;;;;;;;1.70;1.35;;;22.20;59.30;;;;;;4985941;28;88422;-84
2023/09/01 03:54:32;;;;;;;1.55;1.20;;;22.20;59.30;;;;;;4985450;28;87648;-86
2023/09/01 03:56:58;;;;;;;2.25;1.33;;;22.20;59.40;;;;;;4984812;28;87538;-86
2023/09/01 03:59:24;;;;;;;2.88;1.75;;;22.20;59.50;;;;;;4986167;28;87395;-85
2023/09/01 04:01:49;;;;;;;1.77;1.45;;;22.20;59.60;;;;;;4967819;28;88923;-85
2023/09/01 04:04:16;;;;;;;3.55;1.95;;;22.20;59.70;;;;;;4985360;28;87641;-86
2023/09/01 04:06:42;;;;;;;2.38;1.65;;;22.20;59.60;;;;;;4985767;28;88264;-86
2023/09/01 04:09:08;;;;;;;1.30;1.20;;;22.20;59.50;;;;;;4984463;28;87594;-85
2023/09/01 04:11:34;;;;;;;2.63;1.45;;;22.20;59.60;;;;;;4985225;28;88720;-85
2023/09/01 04:14:01;;;;;;;2.70;1.90;;;22.20;59.50;;;;;;4985558;28;87697;-85
2023/09/01 04:16:27;;;;;;;1.42;1.25;;;22.20;59.50;;;;;;4986103;28;87662;-85
2023/09/01 04:18:54;;;;;;;1.45;1.23;;;22.20;59.50;;;;;;4985553;28;87956;-85
2023/09/01 04:21:20;;;;;;;1.67;1.40;;;22.20;59.40;;;;;;4983351;28;89359;-86
2023/09/01 04:23:45;;;;;;;2.17;1.55;;;22.20;59.60;;;;;;4984683;28;87439;-85
2023/09/01 04:26:12;;;;;;;1.33;1.15;;;22.20;59.60;;;;;;4985472;28;88329;-87
2023/09/01 04:28:37;;;;;;;2.00;1.60;;;22.20;59.60;;;;;;4966426;28;89962;-86
2023/09/01 04:31:21;;;;;;;1.70;1.33;;;22.20;59.60;;;;;;4985355;28;88815;-86
2023/09/01 04:33:47;;;;;;;1.98;1.50;;;22.20;59.50;;;;;;4984546;28;95926;-86
2023/09/01 04:36:12;;;;;;;1.77;1.50;;;22.20;59.50;;;;;;4965870;28;88394;-86
2023/09/01 04:38:38;;;;;;;1.55;1.40;;;22.20;59.60;;;;;;4985419;28;87949;-86
2023/09/01 04:41:04;;;;;;;1.30;1.20;;;22.20;59.60;;;;;;4983153;28;87893;-85
2023/09/01 04:43:30;;;;;;;1.50;1.15;;;22.20;59.70;;;;;;4984995;28;88513;-85
2023/09/01 04:45:57;;;;;;;1.80;1.23;;;22.20;59.70;;;;;;4985449;28;87189;-86
2023/09/01 04:48:23;;;;;;;1.38;1.27;;;22.20;59.70;;;;;;4982620;28;87686;-85
2023/09/01 04:50:49;;;;;;;1.92;1.30;;;22.20;59.60;;;;;;4985909;28;88024;-86
2023/09/01 04:53:15;;;;;;;1.77;1.35;;;22.20;59.70;;;;;;4984417;28;87932;-86
2023/09/01 04:55:42;;;;;;;2.60;1.17;;;22.20;59.70;;;;;;4983601;28;88415;-86
2023/09/01 04:58:08;;;;;;;1.38;1.23;;;22.20;59.70;;;;;;4966404;28;89580;-86
2023/09/01 05:00:34;;;;;;;1.10;0.98;;;22.10;59.90;;;;;;4984511;28;87861;-86
2023/09/01 05:03:03;;;;;;;1.58;1.33;;;22.20;59.70;;;;;;4965375;28;90602;-85
2023/09/01 05:05:29;;;;;;;1.73;1.63;;;22.20;59.90;;;;;;4984050;28;87745;-85
2023/09/01 05:07:54;;;;;;;1.88;1.50;;;22.20;59.80;;;;;;4984377;28;87711;-86
2023/09/01 05:10:20;;;;;;;1.40;1.13;;;22.20;59.80;;;;;;4983757;28;87262;-85
2023/09/01 05:12:46;;;;;;;2.10;1.40;;;22.20;59.90;;;;;;4984297;28;87713;-86
2023/09/01 05:15:12;;;;;;;1.52;1.40;;;22.20;59.90;;;;;;4983852;28;88260;-85
2023/09/01 05:17:38;;;;;;;1.50;1.30;;;22.20;60.00;;;;;;4984333;28;88394;-85
2023/09/01 05:20:07;;;;;;;2.00;1.50;;;22.10;59.90;;;;;;4964919;28;90827;-85
2023/09/01 05:22:34;;;;;;;1.75;1.27;;;22.20;59.80;;;;;;4984026;28;87976;-86
2023/09/01 05:25:00;;;;;;;1.85;1.35;;;22.20;59.90;;;;;;4984180;28;88076;-85
2023/09/01 05:27:25;;;;;;;2.70;1.23;;;22.20;59.90;;;;;;4981818;28;88208;-86
2023/09/01 05:29:51;;;;;;;1.60;0.93;;;22.20;59.90;;;;;;4988429;28;88180;-86
2023/09/01 05:32:17;;;;;;;1.60;1.13;;;22.20;60.10;;;;;;4986122;28;88114;-85
2023/09/01 05:34:43;;;;;;;1.42;1.00;;;22.20;60.00;;;;;;4983591;28;88022;-85
2023/09/01 05:37:11;;;;;;;1.15;1.00;;;22.10;59.80;;;;;;4985258;28;86762;-85
2023/09/01 05:39:41;;;;;;;1.45;1.23;;;22.20;59.70;;;;;;4983541;28;88099;-85
2023/09/01 05:42:10;;;;;;;;;;;22.20;59.90;;;;;;4964992;28;90576;-85
2023/09/01 05:44:36;;;;;;;2.55;1.38;;;22.10;59.90;;;;;;4964710;28;88377;-86
2023/09/01 05:47:03;;;;;;;1.67;1.27;;;22.10;60.00;;;;;;4981139;28;88104;-86
2023/09/01 05:49:31;;;;;;;1.50;1.30;;;22.10;60.30;;;;;;4964077;28;89768;-86
2023/09/01 05:51:57;;;;;;;1.42;1.33;;;22.10;60.50;;;;;;4984635;28;88094;-86
2023/09/01 05:54:23;;;;;;;1.35;1.23;;;22.10;61.10;;;;;;4981762;28;87676;-86
2023/09/01 05:56:48;;;;;;;1.40;1.25;;;22.10;61.40;;;;;;4963882;28;88835;-86
2023/09/01 05:59:14;;;;;;;4.03;1.60;;;22.20;61.40;;;;;;4981100;28;91508;-88
2023/09/01 06:01:40;;;;;;;2.92;1.50;;;22.10;61.10;;;;;;4964219;28;90022;-85
2023/09/01 06:04:06;;;;;;;3.55;1.52;;;22.10;61.70;;;;;;4985244;28;87459;-87
2023/09/01 06:06:33;;;;;;;1.40;1.30;;;22.10;62.00;;;;;;4982654;28;88335;-89
2023/09/01 06:08:59;;;;;;;2.33;1.42;;;22.10;62.30;;;;;;4964179;28;91079;-87
2023/09/01 06:11:26;;;;;;;2.97;1.75;;;22.10;62.80;;;;;;4982993;28;90695;-88
2023/09/01 06:13:51;;;;;;;3.67;1.80;;;22.10;63.10;;;;;;4984459;28;89416;-87
2023/09/01 06:16:17;;;;;;;2.65;1.27;;;22.10;63.50;;;;;;4984372;28;87917;-87
2023/09/01 06:18:43;;;;;;;3.67;1.42;;;22.10;63.50;;;;;;4982892;28;90456;-90
2023/09/01 06:21:15;;;;;;;2.35;1.40;;;22.10;63.70;;;;;;4981516;28;87552;-88
2023/09/01 06:23:44;;;;;;;2.63;1.30;;;22.10;63.80;;;;;;4963563;28;87565;-87
2023/09/01 06:26:11;;;;;;;4.78;1.02;;;22.10;64.20;;;;;;4980809;28;88667;-88
2023/09/01 06:28:38;;;;;;;5.45;1.70;;;22.10;64.30;;;;;;4983288;28;88125;-95
2023/09/01 06:31:03;;;;;;;4.35;1.75;;;22.10;64.70;;;;;;4988198;28;87737;-95
2023/09/01 06:33:29;;;;;;;4.15;1.65;;;22.10;64.60;;;;;;4987241;28;89022;-96
2023/09/01 06:35:54;;;;;;;2.22;1.40;;;22.10;64.70;;;;;;4964995;28;87460;-93
2023/09/01 06:38:20;;;;;;;3.53;1.40;;;22.10;65.50;;;;;;4967886;28;87938;-93
2023/09/01 06:40:46;;;;;;;2.13;1.58;;;22.10;66.00;;;;;;4951221;28;90116;-94
2023/09/01 06:43:11;;;;;;;3.30;1.75;;;22.10;66.60;;;;;;4968637;28;87715;-96
2023/09/01 06:45:37;;;;;;;1.80;1.25;;;22.00;66.40;;;;;;4986239;28;87686;-95
2023/09/01 06:48:03;;;;;;;2.78;1.50;;;22.10;66.50;;;;;;4986336;28;88776;-94
2023/09/01 06:50:31;;;;;;;2.05;1.25;;;22.10;66.90;;;;;;4992658;28;90841;-95
2023/09/01 06:52:56;;;;;;;2.47;1.52;;;22.00;67.40;;;;;;4989505;28;87545;-87
2023/09/01 06:55:22;;;;;;;2.97;1.58;;;22.10;66.90;;;;;;4983618;28;87910;-87
2023/09/01 06:57:47;;;;;;;2.63;1.05;;;22.10;66.90;;;;;;4968669;28;91370;-87
2023/09/01 07:00:14;;;;;;;4.82;1.70;;;22.10;66.80;;;;;;4983292;28;88990;-87
2023/09/01 07:02:40;;;;;;;2.58;1.30;;;22.10;66.70;;;;;;4967692;28;87913;-86
2023/09/01 07:05:06;;;;;;;2.42;1.50;;;22.10;66.50;;;;;;4968387;28;87478;-86
2023/09/01 07:07:32;;;;;;;1.75;1.30;;;22.10;66.40;;;;;;4987282;28;88135;-86
2023/09/01 07:09:57;;;;;;;2.25;1.40;;;22.10;66.40;;;;;;4987154;28;88265;-87
2023/09/01 07:12:23;;;;;;;1.90;1.33;;;22.10;66.30;;;;;;4985201;28;87291;-87
2023/09/01 07:14:48;;;;;;;2.67;1.40;;;22.10;66.40;;;;;;4986840;28;87538;-87
2023/09/01 07:17:20;;;;;;;1.55;1.10;;;22.10;66.40;;;;;;4986691;28;87947;-87
2023/09/01 07:19:46;;;;;;;3.63;1.20;;;22.10;66.30;;;;;;4983004;28;90329;-87
2023/09/01 07:22:11;;;;;;;2.67;1.10;;;22.10;66.50;;;;;;4985789;28;88309;-88
2023/09/01 07:24:37;;;;;;;2.33;1.40;;;22.00;66.60;;;;;;4983952;28;88457;-87
2023/09/01 07:27:05;;;;;;;2.17;1.50;;;22.00;67.00;;;;;;4986809;28;87885;-87
2023/09/01 07:29:31;;;;;;;6.82;1.92;;;22.10;67.10;;;;;;4985009;28;87381;-88
2023/09/01 07:31:56;;;;;;;15.32;4.63;;;22.10;67.10;;;;;;4983260;28;88329;-87
2023/09/01 07:34:22;;;;;;;17.08;4.65;;;22.10;67.20;;;;;;4984478;28;89435;-87
2023/09/01 07:36:47;;;;;;;32.28;5.80;;;22.10;67.10;;;;;;4985312;28;87386;-86
2023/09/01 07:39:13;;;;;;;26.25;6.50;;;22.10;66.90;;;;;;4986228;28;86792;-89
2023/09/01 07:41:39;;;;;;;18.75;5.40;;;22.10;67.10;;;;;;4988022;28;87833;-87
2023/09/01 07:44:04;;;;;;;22.73;5.45;;;22.10;67.10;;;;;;4968363;28;87866;-87
2023/09/01 07:46:33;;;;;;;25.67;6.38;;;22.10;67.10;;;;;;4986599;28;89492;-85
2023/09/01 07:48:59;;;;;;;23.73;5.90;;;22.10;67.00;;;;;;4969158;28;90848;-88
2023/09/01 07:51:25;;;;;;;23.35;7.07;;;22.10;66.90;;;;;;4967283;28;87480;-89
2023/09/01 07:53:50;;;;;;;22.63;6.20;;;22.10;66.80;;;;;;4985188;28;87636;-87
2023/09/01 07:56:16;;;;;;;21.05;6.32;;;22.10;66.60;;;;;;4985386;28;87224;-88
2023/09/01 07:58:42;;;;;;;28.85;7.13;;;22.10;66.60;;;;;;4966658;28;90199;-90
2023/09/01 08:01:07;;;;;;;19.88;7.15;;;22.10;67.00;;;;;;4969184;28;88366;-88
2023/09/01 08:03:33;;;;;;;27.30;7.60;;;22.10;66.90;;;;;;4988551;28;87812;-88
2023/09/01 08:05:59;;;;;;;23.88;6.88;;;22.10;66.90;;;;;;4987249;28;94528;-90
2023/09/01 08:08:25;;;;;;;31.02;7.13;;;22.10;67.10;;;;;;4987293;28;88205;-89
2023/09/01 08:10:51;;;;;;;26.13;6.18;;;22.10;67.30;;;;;;4987712;28;88748;-87
2023/09/01 08:13:17;;;;;;;32.25;7.22;;;22.10;67.30;;;;;;4984921;28;90242;-90
2023/09/01 08:15:43;;;;;;;26.13;6.85;;;22.20;67.60;;;;;;4988075;28;87949;-88
2023/09/01 08:18:08;;;;;;;26.85;6.68;;;22.20;67.80;;;;;;4992230;28;87754;-91
2023/09/01 08:20:34;;;;;;;27.42;7.35;;;22.10;67.80;;;;;;4972155;28;87403;-87
2023/09/01 08:23:00;;;;;;;26.80;6.65;;;22.10;68.20;;;;;;4971853;28;89488;-91
2023/09/01 08:25:26;;;;;;;22.27;6.80;;;22.10;69.20;;;;;;4991032;28;87948;-90
2023/09/01 08:27:51;;;;;;;21.38;6.55;;;22.10;68.70;;;;;;4971628;28;87544;-87
2023/09/01 08:30:17;;;;;;;22.48;6.47;;;22.10;69.00;;;;;;4991283;28;87399;-89
2023/09/01 08:32:43;;;;;;;21.02;6.35;;;22.10;69.00;;;;;;4989286;28;88146;-88
2023/09/01 08:35:10;;;;;;;24.50;6.50;;;22.10;69.00;;;;;;4990121;28;89111;-89
2023/09/01 08:37:37;;;;;;;19.92;5.20;;;22.10;69.10;;;;;;4989582;28;87608;-88
2023/09/01 08:40:05;;;;;;;22.33;5.50;;;22.10;70.00;;;;;;4990768;28;87728;-88
2023/09/01 08:42:32;;;;;;;18.85;5.15;;;22.20;69.70;;;;;;4969721;28;89335;-86
2023/09/01 08:44:59;;;;;;;16.80;5.32;;;22.20;69.40;;;;;;4987190;28;87992;-87
2023/09/01 08:47:27;;;;;;;17.73;5.22;;;22.20;69.30;;;;;;4989778;28;88099;-87
2023/09/01 08:49:54;;;;;;;15.23;5.13;;;22.10;69.30;;;;;;4989128;28;87747;-85
2023/09/01 08:52:19;;;;;;;19.17;6.03;;;22.10;69.50;;;;;;4988704;28;87241;-88
2023/09/01 08:54:46;;;;;;;14.77;4.28;;;22.10;69.50;;;;;;4990268;28;87304;-88
2023/09/01 08:57:12;;;;;;;19.80;5.72;;;22.10;69.40;;;;;;4972199;28;90612;-86
2023/09/01 08:59:38;;;;;;;15.45;5.30;;;22.10;69.20;;;;;;4989553;28;87834;-91
2023/09/01 09:02:05;;;;;;;13.43;4.80;;;22.10;69.20;;;;;;4989726;28;87341;-89
2023/09/01 09:04:31;;;;;;;13.55;4.90;;;22.10;69.40;;;;;;4989223;28;87707;-89
2023/09/01 09:07:12;;;;;;;13.77;4.07;;;22.10;69.40;;;;;;4989890;28;87804;-87
2023/09/01 09:09:55;;;;;;;11.95;4.70;;;22.00;69.30;;;;;;4989225;28;88404;-87
2023/09/01 09:12:22;;;;;;;9.27;3.90;;;22.00;69.30;;;;;;4987546;28;87725;-87
2023/09/01 09:14:51;;;;;;;12.23;3.92;;;22.00;69.40;;;;;;4989990;28;87360;-90
2023/09/01 09:17:17;;;;;;;11.90;4.28;;;22.00;69.50;;;;;;4990278;28;88258;-88
2023/09/01 09:19:54;;;;;;;14.43;4.32;;;22.00;69.80;;;;;;4969677;28;87242;-87
2023/09/01 09:22:20;;;;;;;13.30;4.18;;;22.10;70.00;;;;;;4989580;28;87034;-86
2023/09/01 09:24:46;;;;;;;16.55;4.10;;;22.10;69.70;;;;;;4989819;28;89080;-88
2023/09/01 09:27:17;;;;;;;12.45;3.95;;;22.10;69.80;;;;;;4986194;28;89095;-87
2023/09/01 09:29:43;;;;;;;14.88;4.13;;;22.00;69.70;;;;;;4988805;28;87169;-88
2023/09/01 09:32:23;;;;;;;17.05;4.82;;;22.00;69.80;;;;;;4989889;28;87000;-91
2023/09/01 09:35:10;;;;;;;10.15;3.90;;;22.10;70.00;;;;;;4990296;28;87762;-89
2023/09/01 09:37:37;;;;;;;12.13;4.65;;;22.10;70.60;;;;;;4971032;28;90090;-88
2023/09/01 09:40:14;;;;;;;11.13;3.95;;;22.00;71.00;;;;;;4971728;28;86980;-87
2023/09/01 09:42:41;;;;;;;9.43;3.60;;;22.00;70.50;;;;;;4972400;28;92114;-90
2023/09/01 09:45:32;;;;;;;12.88;3.90;;;22.10;70.50;;;;;;4991230;28;88935;-91
2023/09/01 09:48:04;;;;;;;9.82;3.60;;;22.10;70.20;;;;;;4987072;28;87854;-87
2023/09/01 09:50:30;;;;;;;10.48;3.97;;;22.10;70.20;;;;;;4982005;28;88722;-87
2023/09/01 09:53:04;;;;;;;9.18;3.72;;;22.10;70.00;;;;;;4982331;28;87706;-90
2023/09/01 09:55:50;;;;;;;9.98;3.78;;;22.10;70.00;;;;;;4967195;28;90551;-88
2023/09/01 09:58:27;;;;;;;16.15;4.07;;;22.10;69.80;;;;;;4985474;28;87820;-90
2023/09/01 10:01:02;;;;;;;7.30;3.70;;;22.10;69.50;;;;;;4984906;28;88108;-89
2023/09/01 10:03:31;;;;;;;10.32;3.90;;;22.20;69.90;;;;;;4981614;28;89846;-88
2023/09/01 10:05:58;;;;;;;8.73;3.35;;;22.10;69.90;;;;;;4986868;28;87632;-88
2023/09/01 10:08:25;;;;;;;9.13;3.28;;;22.10;69.80;;;;;;4989323;28;88493;-87
2023/09/01 10:10:52;;;;;;;11.77;3.10;;;22.10;69.70;;;;;;4987965;28;87023;-88
2023/09/01 10:13:21;;;;;;;8.70;3.15;;;22.10;70.00;;;;;;4968090;28;89508;-87
2023/09/01 10:15:48;;;;;;;7.47;3.15;;;22.10;70.40;;;;;;4986743;28;92838;-87
2023/09/01 10:18:15;;;;;;;5.07;2.70;;;22.10;70.80;;;;;;4987955;28;88614;-88
2023/09/01 10:20:43;;;;;;;7.00;2.60;;;22.10;70.90;;;;;;4982445;28;87945;-87
2023/09/01 10:23:10;;;;;;;6.13;2.30;;;22.00;71.30;;;;;;4985367;28;87278;-90
2023/09/01 10:25:36;;;;;;;10.30;2.88;;;22.10;71.40;;;;;;4989091;28;87427;-88
2023/09/01 10:28:06;;;;;;;5.10;2.53;;;22.10;71.20;;;;;;4989577;28;87824;-89
2023/09/01 10:30:34;;;;;;;6.13;2.78;;;22.10;70.30;;;;;;4966556;28;87553;-87
2023/09/01 10:33:14;;;;;;;8.88;2.42;;;22.20;69.00;;;;;;4969212;28;86686;-89
2023/09/01 10:35:42;;;;;;;5.85;2.50;;;22.20;69.90;;;;;;4967794;28;88994;-88
2023/09/01 10:38:35;;;;;;;7.53;3.28;;;22.20;69.50;;;;;;4967474;28;86947;-87
2023/09/01 10:41:01;;;;;;;9.77;3.53;;;22.20;69.40;;;;;;4962397;28;88426;-88
2023/09/01 10:43:41;;;;;;;9.32;3.70;;;22.20;68.90;;;;;;4965062;28;90663;-87
2023/09/01 10:46:16;;;;;;;7.18;2.58;;;22.10;69.30;;;;;;4967482;28;87557;-87
2023/09/01 10:48:57;;;;;;;3.97;1.80;;;22.10;69.00;;;;;;4967104;28;91992;-87
2023/09/01 10:51:27;;;;;;;6.07;2.15;;;22.10;69.50;;;;;;4949455;28;87494;-87
2023/09/01 10:53:56;;;;;;;9.63;2.45;;;22.10;69.50;;;;;;4978340;28;87532;-87
2023/09/01 10:56:22;;;;;;;4.22;1.40;;;22.10;69.90;;;;;;4969037;28;89279;-87
2023/09/01 10:58:50;;;;;;;2.10;1.15;;;22.10;70.40;;;;;;4986192;28;87962;-87
2023/09/01 11:01:36;;;;;;;4.70;1.70;;;22.10;70.50;;;;;;4983457;28;87462;-86
2023/09/01 11:04:14;;;;;;;2.95;1.20;;;22.10;70.20;;;;;;4986289;28;87581;-86
2023/09/01 11:07:03;;;;;;;2.50;1.23;;;22.10;70.20;;;;;;4966147;28;95949;-86
2023/09/01 11:09:34;;;;;;;4.05;1.60;;;22.10;70.20;;;;;;4975132;28;88701;-85
2023/09/01 11:12:05;;;;;;;2.25;1.17;;;22.00;70.10;;;;;;4986879;28;87336;-85
2023/09/01 11:14:32;;;;;;;4.03;1.05;;;22.10;69.90;;;;;;4986574;28;87678;-86
2023/09/01 11:16:58;;;;;;;3.10;1.52;;;22.10;69.90;;;;;;4985675;28;88251;-85
2023/09/01 11:19:23;;;;;;;1.73;0.70;;;22.10;69.90;;;;;;4985526;28;88653;-86
2023/09/01 11:21:50;;;;;;;2.05;1.13;;;22.10;70.00;;;;;;4984058;28;87522;-88
2023/09/01 11:26:51;;;;;;;2.20;1.10;;;22.10;69.80;;;;;;4986275;28;88157;-89
2023/09/01 11:29:21;;;;;;;3.05;1.20;;;22.10;69.90;;;;;;4966428;28;90437;-88
2023/09/01 11:31:47;;;;;;;3.65;1.33;;;22.00;70.10;;;;;;4985972;28;88541;-87
2023/09/01 11:34:13;;;;;;;0.93;0.60;;;22.10;69.90;;;;;;4984860;28;88414;-89
2023/09/01 11:36:51;;;;;;;3.95;1.40;;;22.10;70.20;;;;;;4983009;28;87963;-88
2023/09/01 11:39:18;;;;;;;1.38;0.90;;;22.10;70.00;;;;;;4984979;28;87761;-88
2023/09/01 11:41:45;;;;;;;0.90;0.60;;;22.10;70.00;;;;;;4967273;28;87889;-88
2023/09/01 11:44:11;;;;;;;1.73;1.10;;;22.10;69.90;;;;;;4985389;28;87460;-88
2023/09/01 11:46:37;;;;;;;3.33;1.08;;;22.10;69.60;;;;;;4985041;28;87951;-88
2023/09/01 11:49:05;;;;;;;0.70;0.60;;;22.10;69.70;;;;;;4985947;28;86581;-88
2023/09/01 11:51:38;;;;;;;1.98;0.75;;;22.10;69.70;;;;;;4965159;28;87682;-88
2023/09/01 11:54:04;;;;;;;1.10;0.70;;;22.10;69.60;;;;;;4966274;28;89576;-86
2023/09/01 11:56:30;;;;;;;2.42;1.02;;;22.20;69.60;;;;;;4982196;28;90331;-86
2023/09/01 11:58:58;;;;;;;1.13;0.65;;;22.20;69.70;;;;;;4967729;28;91105;-86
2023/09/01 12:01:27;;;;;;;2.03;0.77;;;22.20;69.40;;;;;;4985467;28;87469;-86
2023/09/01 12:03:53;;;;;;;;;;;22.20;69.50;;;;;;4985712;28;88005;-87
2023/09/01 12:06:20;;;;;;;2.10;0.90;;;22.20;69.70;;;;;;4986091;28;94811;-87
2023/09/01 12:08:47;;;;;;;1.13;0.60;;;22.20;69.70;;;;;;4984748;28;87909;-86
2023/09/01 12:11:13;;;;;;;1.05;0.70;;;22.10;69.90;;;;;;4985104;28;87742;-86
2023/09/01 12:13:40;;;;;;;0.80;0.60;;;22.20;70.00;;;;;;4983741;28;87364;-86
2023/09/01 12:16:05;;;;;;;1.92;0.50;;;22.20;69.90;;;;;;4984631;28;89044;-86
2023/09/01 12:18:38;;;;;;;2.88;0.60;;;22.20;69.70;;;;;;4982285;28;90980;-86
2023/09/01 12:21:06;;;;;;;2.17;0.73;;;22.30;70.50;;;;;;4982226;28;88746;-87
2023/09/01 12:23:34;;;;;;;3.22;0.80;;;22.30;70.60;;;;;;4983522;28;87541;-87
2023/09/01 12:26:01;;;;;;;3.03;0.60;;;22.40;70.10;;;;;;4979609;28;91163;-87
2023/09/01 12:28:28;;;;;;;2.45;0.70;;;22.30;70.00;;;;;;4982157;28;88188;-87
2023/09/01 12:30:55;;;;;;;1.92;1.00;;;22.20;70.10;;;;;;4985625;28;87490;-86
2023/09/01 12:33:21;;;;;;;3.28;0.90;;;22.20;70.30;;;;;;4984544;28;87304;-87
2023/09/01 12:35:47;;;;;;;2.75;0.70;;;22.20;70.40;;;;;;4984570;28;88092;-87
2023/09/01 12:38:12;;;;;;;2.17;0.68;;;22.20;70.50;;;;;;4966381;28;88957;-86
2023/09/01 12:40:38;;;;;;;0.85;0.52;;;22.20;70.50;;;;;;4983940;28;87762;-87
2023/09/01 12:43:03;;;;;;;1.00;0.70;;;22.20;70.60;;;;;;4985450;28;88158;-87
2023/09/01 12:45:29;;;;;;;1.45;0.80;;;22.20;70.90;;;;;;4984696;28;89066;-86
2023/09/01 12:47:55;;;;;;;1.63;0.77;;;22.20;70.70;;;;;;4964534;28;88818;-87
2023/09/01 12:50:21;;;;;;;2.25;0.82;;;22.20;70.70;;;;;;4984127;28;87505;-86